sensor_id;sensor_type;location;lat;lon;timestamp;temperature;humidity
21425;DHT22;10873;51.132;16.848;2024-03-23T00:55:19;25.90;51.70
21425;DHT22;10873;51.132;16.848;2024-03-23T00:57:44;25.90;51.70
21425;DHT22;10873;51.132;16.848;2024-03-23T01:00:12;25.90;51.70
21425;DHT22;10873;51.132;16.848;2024-03-23T01:02:38;25.90;51.70
21425;DHT22;10873;51.132;16.848;2024-03-23T01:05:06;25.90;51.70
21425;DHT22;10873;51.132;16.848;2024-03-23T01:07:32;25.90;51.70
21425;DHT22;10873;51.132;16.848;2024-03-23T01:09:59;25.90;51.70
21425;DHT22;10873;51.132;16.848;2024-03-23T01:12:25;25.90;51.70
21425;DHT22;10873;51.132;16.848;2024-03-23T01:14:51;25.90;51.70
21425;DHT22;10873;51.132;16.848;2024-03-23T01:17:17;25.90;51.70
21425;DHT22;10873;51.132;16.848;2024-03-23T01:19:43;25.90;51.80
21425;DHT22;10873;51.132;16.848;2024-03-23T01:22:10;25.90;51.80
21425;DHT22;10873;51.132;16.848;2024-03-23T01:24:37;25.80;51.80
21425;DHT22;10873;51.132;16.848;2024-03-23T01:27:04;25.80;51.80
21425;DHT22;10873;51.132;16.848;2024-03-23T01:29:31;25.80;51.80
21425;DHT22;10873;51.132;16.848;2024-03-23T01:31:57;25.80;51.80
21425;DHT22;10873;51.132;16.848;2024-03-23T01:34:23;25.80;51.80
21425;DHT22;10873;51.132;16.848;2024-03-23T01:36:50;25.80;51.90
21425;DHT22;10873;51.132;16.848;2024-03-23T01:39:17;25.90;51.80
21425;DHT22;10873;51.132;16.848;2024-03-23T01:41:42;25.90;51.80
21425;DHT22;10873;51.132;16.848;2024-03-23T01:44:10;25.90;51.80
21425;DHT22;10873;51.132;16.848;2024-03-23T01:46:37;25.90;51.80
21425;DHT22;10873;51.132;16.848;2024-03-23T01:49:09;25.90;51.80
21425;DHT22;10873;51.132;16.848;2024-03-23T01:51:36;25.90;51.80
21425;DHT22;10873;51.132;16.848;2024-03-23T01:54:03;25.90;51.80
21425;DHT22;10873;51.132;16.848;2024-03-23T01:56:29;25.90;51.70
21425;DHT22;10873;51.132;16.848;2024-03-23T01:58:59;25.90;51.80
21425;DHT22;10873;51.132;16.848;2024-03-23T02:01:27;25.90;51.80
21425;DHT22;10873;51.132;16.848;2024-03-23T02:03:53;25.90;51.80
21425;DHT22;10873;51.132;16.848;2024-03-23T02:06:21;25.90;51.80
21425;DHT22;10873;51.132;16.848;2024-03-23T02:08:48;25.80;51.80
21425;DHT22;10873;51.132;16.848;2024-03-23T02:11:14;25.80;51.80
21425;DHT22;10873;51.132;16.848;2024-03-23T02:13:41;25.80;51.80
21425;DHT22;10873;51.132;16.848;2024-03-23T02:16:07;25.80;51.80
21425;DHT22;10873;51.132;16.848;2024-03-23T02:18:34;25.80;51.90
21425;DHT22;10873;51.132;16.848;2024-03-23T02:21:00;25.80;51.80
21425;DHT22;10873;51.132;16.848;2024-03-23T02:23:28;25.80;51.80
21425;DHT22;10873;51.132;16.848;2024-03-23T02:25:54;25.80;51.80
21425;DHT22;10873;51.132;16.848;2024-03-23T02:28:20;25.90;51.80
21425;DHT22;10873;51.132;16.848;2024-03-23T02:30:48;25.90;51.80
21425;DHT22;10873;51.132;16.848;2024-03-23T02:33:15;25.90;51.80
21425;DHT22;10873;51.132;16.848;2024-03-23T02:35:41;25.90;51.80
21425;DHT22;10873;51.132;16.848;2024-03-23T02:38:07;25.90;51.80
21425;DHT22;10873;51.132;16.848;2024-03-23T02:40:34;25.90;51.70
21425;DHT22;10873;51.132;16.848;2024-03-23T02:43:00;25.90;51.80
21425;DHT22;10873;51.132;16.848;2024-03-23T02:45:26;25.80;51.70
21425;DHT22;10873;51.132;16.848;2024-03-23T02:47:53;25.80;51.70
21425;DHT22;10873;51.132;16.848;2024-03-23T02:50:19;25.80;51.70
21425;DHT22;10873;51.132;16.848;2024-03-23T02:52:45;25.80;51.80
21425;DHT22;10873;51.132;16.848;2024-03-23T02:55:12;25.80;51.80
21425;DHT22;10873;51.132;16.848;2024-03-23T02:57:40;25.80;51.80
21425;DHT22;10873;51.132;16.848;2024-03-23T03:00:07;25.80;51.80
21425;DHT22;10873;51.132;16.848;2024-03-23T03:02:33;25.80;51.80
21425;DHT22;10873;51.132;16.848;2024-03-23T03:04:59;25.80;51.80
21425;DHT22;10873;51.132;16.848;2024-03-23T03:07:26;25.80;51.80
21425;DHT22;10873;51.132;16.848;2024-03-23T03:09:52;25.80;51.80
21425;DHT22;10873;51.132;16.848;2024-03-23T03:12:18;25.80;51.80
21425;DHT22;10873;51.132;16.848;2024-03-23T03:14:45;25.80;51.80
21425;DHT22;10873;51.132;16.848;2024-03-23T03:17:11;25.80;51.80
21425;DHT22;10873;51.132;16.848;2024-03-23T03:19:37;25.80;51.80
21425;DHT22;10873;51.132;16.848;2024-03-23T03:22:04;25.80;51.80
21425;DHT22;10873;51.132;16.848;2024-03-23T03:24:30;25.80;51.80
21425;DHT22;10873;51.132;16.848;2024-03-23T03:26:57;25.80;51.90
21425;DHT22;10873;51.132;16.848;2024-03-23T03:29:25;25.70;51.80
21425;DHT22;10873;51.132;16.848;2024-03-23T03:31:52;25.80;51.90
21425;DHT22;10873;51.132;16.848;2024-03-23T03:34:18;25.70;51.80
21425;DHT22;10873;51.132;16.848;2024-03-23T03:36:45;25.70;51.90
21425;DHT22;10873;51.132;16.848;2024-03-23T03:39:11;25.70;51.90
21425;DHT22;10873;51.132;16.848;2024-03-23T03:41:38;25.80;51.90
21425;DHT22;10873;51.132;16.848;2024-03-23T03:44:04;25.80;52.00
21425;DHT22;10873;51.132;16.848;2024-03-23T03:46:31;25.80;51.90
21425;DHT22;10873;51.132;16.848;2024-03-23T03:48:57;25.80;51.90
21425;DHT22;10873;51.132;16.848;2024-03-23T03:51:24;25.80;52.50
21425;DHT22;10873;51.132;16.848;2024-03-23T03:53:50;25.80;51.90
21425;DHT22;10873;51.132;16.848;2024-03-23T03:56:16;25.80;51.90
21425;DHT22;10873;51.132;16.848;2024-03-23T03:58:43;25.80;51.90
21425;DHT22;10873;51.132;16.848;2024-03-23T04:01:10;25.80;51.90
21425;DHT22;10873;51.132;16.848;2024-03-23T04:03:36;25.80;51.90
21425;DHT22;10873;51.132;16.848;2024-03-23T04:06:04;25.80;51.90
21425;DHT22;10873;51.132;16.848;2024-03-23T04:08:30;25.70;51.90
21425;DHT22;10873;51.132;16.848;2024-03-23T04:10:56;25.70;51.90
21425;DHT22;10873;51.132;16.848;2024-03-23T04:13:22;25.70;51.90
21425;DHT22;10873;51.132;16.848;2024-03-23T04:15:53;25.70;51.90
21425;DHT22;10873;51.132;16.848;2024-03-23T04:18:19;25.70;51.90
21425;DHT22;10873;51.132;16.848;2024-03-23T04:20:46;25.80;51.90
21425;DHT22;10873;51.132;16.848;2024-03-23T04:23:14;25.80;51.90
21425;DHT22;10873;51.132;16.848;2024-03-23T04:25:40;25.80;51.90
21425;DHT22;10873;51.132;16.848;2024-03-23T04:28:06;25.80;51.80
21425;DHT22;10873;51.132;16.848;2024-03-23T04:30:32;25.80;51.80
21425;DHT22;10873;51.132;16.848;2024-03-23T04:32:58;25.80;51.80
21425;DHT22;10873;51.132;16.848;2024-03-23T04:35:25;25.80;51.80
21425;DHT22;10873;51.132;16.848;2024-03-23T04:37:52;25.80;51.80
21425;DHT22;10873;51.132;16.848;2024-03-23T04:40:19;25.80;51.70
21425;DHT22;10873;51.132;16.848;2024-03-23T04:42:46;25.80;51.70
21425;DHT22;10873;51.132;16.848;2024-03-23T04:45:12;25.80;51.80
21425;DHT22;10873;51.132;16.848;2024-03-23T04:47:38;25.80;51.70
21425;DHT22;10873;51.132;16.848;2024-03-23T04:50:05;25.80;51.70
21425;DHT22;10873;51.132;16.848;2024-03-23T04:52:31;25.80;51.80
21425;DHT22;10873;51.132;16.848;2024-03-23T04:54:57;25.80;51.70
21425;DHT22;10873;51.132;16.848;2024-03-23T04:57:24;25.80;51.80
21425;DHT22;10873;51.132;16.848;2024-03-23T04:59:50;25.80;51.80
21425;DHT22;10873;51.132;16.848;2024-03-23T05:02:17;25.80;51.80
21425;DHT22;10873;51.132;16.848;2024-03-23T05:04:43;25.80;51.70
21425;DHT22;10873;51.132;16.848;2024-03-23T05:07:09;25.80;51.70
21425;DHT22;10873;51.132;16.848;2024-03-23T05:09:35;25.90;51.70
21425;DHT22;10873;51.132;16.848;2024-03-23T05:12:01;25.90;51.70
21425;DHT22;10873;51.132;16.848;2024-03-23T05:14:28;25.90;51.70
21425;DHT22;10873;51.132;16.848;2024-03-23T05:16:54;25.90;51.60
21425;DHT22;10873;51.132;16.848;2024-03-23T05:19:21;25.90;51.60
21425;DHT22;10873;51.132;16.848;2024-03-23T05:21:48;25.90;51.60
21425;DHT22;10873;51.132;16.848;2024-03-23T05:24:14;25.90;51.60
21425;DHT22;10873;51.132;16.848;2024-03-23T05:26:40;25.90;51.70
21425;DHT22;10873;51.132;16.848;2024-03-23T05:29:07;25.90;51.60
21425;DHT22;10873;51.132;16.848;2024-03-23T05:31:37;25.80;51.60
21425;DHT22;10873;51.132;16.848;2024-03-23T05:34:03;25.80;51.60
21425;DHT22;10873;51.132;16.848;2024-03-23T05:36:29;25.80;51.60
21425;DHT22;10873;51.132;16.848;2024-03-23T05:38:56;25.80;51.60
21425;DHT22;10873;51.132;16.848;2024-03-23T05:41:21;25.80;51.70
21425;DHT22;10873;51.132;16.848;2024-03-23T05:43:51;25.80;51.70
21425;DHT22;10873;51.132;16.848;2024-03-23T05:46:17;25.80;51.70
21425;DHT22;10873;51.132;16.848;2024-03-23T05:48:45;25.80;51.80
21425;DHT22;10873;51.132;16.848;2024-03-23T05:51:11;25.80;51.80
21425;DHT22;10873;51.132;16.848;2024-03-23T05:53:38;25.80;51.80
21425;DHT22;10873;51.132;16.848;2024-03-23T05:56:05;25.80;51.80
21425;DHT22;10873;51.132;16.848;2024-03-23T05:58:32;25.80;51.80
21425;DHT22;10873;51.132;16.848;2024-03-23T06:00:58;25.80;51.80
21425;DHT22;10873;51.132;16.848;2024-03-23T06:03:26;25.80;51.80
21425;DHT22;10873;51.132;16.848;2024-03-23T06:05:53;25.80;51.80
21425;DHT22;10873;51.132;16.848;2024-03-23T06:08:20;25.80;51.70
21425;DHT22;10873;51.132;16.848;2024-03-23T06:10:48;25.80;51.70
21425;DHT22;10873;51.132;16.848;2024-03-23T06:13:14;25.80;51.70
21425;DHT22;10873;51.132;16.848;2024-03-23T06:15:41;25.80;51.70
21425;DHT22;10873;51.132;16.848;2024-03-23T06:18:07;25.90;51.80
21425;DHT22;10873;51.132;16.848;2024-03-23T06:20:34;25.80;51.70
21425;DHT22;10873;51.132;16.848;2024-03-23T06:23:02;25.80;51.70
21425;DHT22;10873;51.132;16.848;2024-03-23T06:25:29;25.90;51.70
21425;DHT22;10873;51.132;16.848;2024-03-23T06:27:59;25.90;51.70
21425;DHT22;10873;51.132;16.848;2024-03-23T06:30:27;25.90;51.70
21425;DHT22;10873;51.132;16.848;2024-03-23T06:32:55;25.80;51.70
21425;DHT22;10873;51.132;16.848;2024-03-23T06:35:22;25.80;51.70
21425;DHT22;10873;51.132;16.848;2024-03-23T06:37:48;25.80;51.70
21425;DHT22;10873;51.132;16.848;2024-03-23T06:40:17;25.80;51.70
21425;DHT22;10873;51.132;16.848;2024-03-23T06:42:43;25.80;51.70
21425;DHT22;10873;51.132;16.848;2024-03-23T06:45:09;25.80;51.80
21425;DHT22;10873;51.132;16.848;2024-03-23T06:47:36;25.80;51.80
21425;DHT22;10873;51.132;16.848;2024-03-23T06:50:04;25.80;51.80
21425;DHT22;10873;51.132;16.848;2024-03-23T06:52:31;25.80;51.90
21425;DHT22;10873;51.132;16.848;2024-03-23T06:54:57;25.80;51.80
21425;DHT22;10873;51.132;16.848;2024-03-23T06:57:25;25.90;51.90
21425;DHT22;10873;51.132;16.848;2024-03-23T06:59:52;25.90;51.90
21425;DHT22;10873;51.132;16.848;2024-03-23T07:02:19;25.90;51.90
21425;DHT22;10873;51.132;16.848;2024-03-23T07:04:45;25.90;51.90
21425;DHT22;10873;51.132;16.848;2024-03-23T07:07:13;25.90;51.90
21425;DHT22;10873;51.132;16.848;2024-03-23T07:09:40;25.90;52.00
21425;DHT22;10873;51.132;16.848;2024-03-23T07:12:08;25.90;52.00
21425;DHT22;10873;51.132;16.848;2024-03-23T07:14:35;25.90;52.10
21425;DHT22;10873;51.132;16.848;2024-03-23T07:17:06;25.90;52.10
21425;DHT22;10873;51.132;16.848;2024-03-23T07:19:34;25.90;52.20
21425;DHT22;10873;51.132;16.848;2024-03-23T07:22:05;25.90;52.20
21425;DHT22;10873;51.132;16.848;2024-03-23T07:25:12;25.90;52.20
21425;DHT22;10873;51.132;16.848;2024-03-23T07:28:01;25.90;52.30
21425;DHT22;10873;51.132;16.848;2024-03-23T07:30:29;25.90;52.40
21425;DHT22;10873;51.132;16.848;2024-03-23T07:32:56;25.90;52.40
21425;DHT22;10873;51.132;16.848;2024-03-23T07:38:43;25.90;52.50
21425;DHT22;10873;51.132;16.848;2024-03-23T07:41:30;25.90;52.60
21425;DHT22;10873;51.132;16.848;2024-03-23T07:43:57;26.00;52.70
21425;DHT22;10873;51.132;16.848;2024-03-23T07:46:24;26.00;52.80
21425;DHT22;10873;51.132;16.848;2024-03-23T07:48:51;26.00;53.50
21425;DHT22;10873;51.132;16.848;2024-03-23T07:51:20;26.00;53.70
21425;DHT22;10873;51.132;16.848;2024-03-23T07:53:46;25.90;53.40
21425;DHT22;10873;51.132;16.848;2024-03-23T07:56:13;25.90;52.90
21425;DHT22;10873;51.132;16.848;2024-03-23T07:58:42;25.90;52.40
21425;DHT22;10873;51.132;16.848;2024-03-23T08:01:09;25.80;52.00
21425;DHT22;10873;51.132;16.848;2024-03-23T08:03:36;25.80;51.90
21425;DHT22;10873;51.132;16.848;2024-03-23T08:06:09;25.80;51.80
21425;DHT22;10873;51.132;16.848;2024-03-23T08:08:36;25.70;51.70
21425;DHT22;10873;51.132;16.848;2024-03-23T08:11:02;25.70;51.70
21425;DHT22;10873;51.132;16.848;2024-03-23T08:13:30;25.70;51.70
21425;DHT22;10873;51.132;16.848;2024-03-23T08:15:57;25.60;51.70
21425;DHT22;10873;51.132;16.848;2024-03-23T08:18:23;25.60;51.80
21425;DHT22;10873;51.132;16.848;2024-03-23T08:20:56;25.50;51.90
21425;DHT22;10873;51.132;16.848;2024-03-23T08:23:24;25.50;52.00
21425;DHT22;10873;51.132;16.848;2024-03-23T08:25:50;25.40;52.20
21425;DHT22;10873;51.132;16.848;2024-03-23T08:28:16;25.40;52.30
21425;DHT22;10873;51.132;16.848;2024-03-23T08:30:42;25.40;52.50
21425;DHT22;10873;51.132;16.848;2024-03-23T08:33:09;25.30;52.50
21425;DHT22;10873;51.132;16.848;2024-03-23T08:35:34;25.30;52.50
21425;DHT22;10873;51.132;16.848;2024-03-23T08:38:02;25.20;52.40
21425;DHT22;10873;51.132;16.848;2024-03-23T08:40:28;25.20;52.50
21425;DHT22;10873;51.132;16.848;2024-03-23T08:42:54;25.10;52.50
21425;DHT22;10873;51.132;16.848;2024-03-23T08:45:20;25.00;52.60
21425;DHT22;10873;51.132;16.848;2024-03-23T08:47:48;25.00;52.70
21425;DHT22;10873;51.132;16.848;2024-03-23T08:50:14;24.90;52.80
21425;DHT22;10873;51.132;16.848;2024-03-23T08:52:40;24.90;52.90
21425;DHT22;10873;51.132;16.848;2024-03-23T08:55:07;24.90;53.00
21425;DHT22;10873;51.132;16.848;2024-03-23T08:57:36;24.80;53.00
21425;DHT22;10873;51.132;16.848;2024-03-23T09:00:02;24.70;53.00
21425;DHT22;10873;51.132;16.848;2024-03-23T09:02:29;24.70;53.00
21425;DHT22;10873;51.132;16.848;2024-03-23T09:04:54;24.70;53.00
21425;DHT22;10873;51.132;16.848;2024-03-23T09:07:21;24.60;52.80
21425;DHT22;10873;51.132;16.848;2024-03-23T09:09:47;24.60;52.70
21425;DHT22;10873;51.132;16.848;2024-03-23T09:12:33;24.60;52.60
21425;DHT22;10873;51.132;16.848;2024-03-23T09:15:00;24.60;52.60
21425;DHT22;10873;51.132;16.848;2024-03-23T09:17:26;24.60;52.60
21425;DHT22;10873;51.132;16.848;2024-03-23T09:19:52;24.50;52.60
21425;DHT22;10873;51.132;16.848;2024-03-23T09:22:18;24.50;52.70
21425;DHT22;10873;51.132;16.848;2024-03-23T09:24:44;24.50;52.70
21425;DHT22;10873;51.132;16.848;2024-03-23T09:27:11;24.50;52.70
21425;DHT22;10873;51.132;16.848;2024-03-23T09:29:37;24.50;52.80
21425;DHT22;10873;51.132;16.848;2024-03-23T09:32:04;24.50;52.80
21425;DHT22;10873;51.132;16.848;2024-03-23T09:34:30;24.40;52.80
21425;DHT22;10873;51.132;16.848;2024-03-23T09:36:56;24.40;52.80
21425;DHT22;10873;51.132;16.848;2024-03-23T09:39:22;24.50;52.90
21425;DHT22;10873;51.132;16.848;2024-03-23T09:41:49;24.40;52.80
21425;DHT22;10873;51.132;16.848;2024-03-23T09:44:16;24.50;53.00
21425;DHT22;10873;51.132;16.848;2024-03-23T09:46:44;24.50;53.00
21425;DHT22;10873;51.132;16.848;2024-03-23T09:49:10;24.50;53.00
21425;DHT22;10873;51.132;16.848;2024-03-23T09:51:37;24.50;53.00
21425;DHT22;10873;51.132;16.848;2024-03-23T09:54:03;24.50;53.10
21425;DHT22;10873;51.132;16.848;2024-03-23T09:56:29;24.50;53.30
21425;DHT22;10873;51.132;16.848;2024-03-23T09:59:01;24.50;53.50
21425;DHT22;10873;51.132;16.848;2024-03-23T10:01:29;24.40;53.40
21425;DHT22;10873;51.132;16.848;2024-03-23T10:03:56;24.40;53.50
21425;DHT22;10873;51.132;16.848;2024-03-23T10:06:23;24.40;53.50
21425;DHT22;10873;51.132;16.848;2024-03-23T10:08:52;24.40;53.40
21425;DHT22;10873;51.132;16.848;2024-03-23T10:11:20;24.40;53.50
21425;DHT22;10873;51.132;16.848;2024-03-23T10:13:47;24.40;53.50
21425;DHT22;10873;51.132;16.848;2024-03-23T10:16:21;24.40;53.50
21425;DHT22;10873;51.132;16.848;2024-03-23T10:18:48;24.40;53.70
21425;DHT22;10873;51.132;16.848;2024-03-23T10:21:16;24.40;53.80
21425;DHT22;10873;51.132;16.848;2024-03-23T10:23:43;24.40;54.50
21425;DHT22;10873;51.132;16.848;2024-03-23T10:26:18;24.40;55.00
21425;DHT22;10873;51.132;16.848;2024-03-23T10:28:57;24.40;55.20
21425;DHT22;10873;51.132;16.848;2024-03-23T10:31:27;24.40;55.60
21425;DHT22;10873;51.132;16.848;2024-03-23T10:33:53;24.50;55.70
21425;DHT22;10873;51.132;16.848;2024-03-23T10:36:22;24.50;55.90
21425;DHT22;10873;51.132;16.848;2024-03-23T10:38:50;24.60;56.50
21425;DHT22;10873;51.132;16.848;2024-03-23T10:41:17;24.60;56.40
21425;DHT22;10873;51.132;16.848;2024-03-23T10:43:44;24.60;56.50
21425;DHT22;10873;51.132;16.848;2024-03-23T10:46:11;24.80;61.40
21425;DHT22;10873;51.132;16.848;2024-03-23T10:48:38;25.10;61.80
21425;DHT22;10873;51.132;16.848;2024-03-23T10:51:07;25.40;62.10
21425;DHT22;10873;51.132;16.848;2024-03-23T10:53:35;25.80;61.60
21425;DHT22;10873;51.132;16.848;2024-03-23T10:56:04;26.30;61.20
21425;DHT22;10873;51.132;16.848;2024-03-23T10:58:32;26.70;60.40
21425;DHT22;10873;51.132;16.848;2024-03-23T11:01:02;27.20;59.90
21425;DHT22;10873;51.132;16.848;2024-03-23T11:03:32;27.50;58.80
21425;DHT22;10873;51.132;16.848;2024-03-23T11:06:00;27.90;58.90
21425;DHT22;10873;51.132;16.848;2024-03-23T11:08:33;28.10;58.50
21425;DHT22;10873;51.132;16.848;2024-03-23T11:11:16;28.40;57.50
21425;DHT22;10873;51.132;16.848;2024-03-23T11:13:48;28.80;57.70
21425;DHT22;10873;51.132;16.848;2024-03-23T11:16:22;29.00;56.10
21425;DHT22;10873;51.132;16.848;2024-03-23T11:18:49;29.30;55.40
21425;DHT22;10873;51.132;16.848;2024-03-23T11:21:52;29.50;54.60
21425;DHT22;10873;51.132;16.848;2024-03-23T11:24:22;29.70;54.00
21425;DHT22;10873;51.132;16.848;2024-03-23T11:26:50;29.70;53.60
21425;DHT22;10873;51.132;16.848;2024-03-23T11:29:18;29.80;53.20
21425;DHT22;10873;51.132;16.848;2024-03-23T11:31:48;29.80;53.10
21425;DHT22;10873;51.132;16.848;2024-03-23T11:34:15;29.90;53.00
21425;DHT22;10873;51.132;16.848;2024-03-23T11:36:42;30.00;52.40
21425;DHT22;10873;51.132;16.848;2024-03-23T11:39:14;30.10;52.50
21425;DHT22;10873;51.132;16.848;2024-03-23T11:41:46;30.20;51.90
21425;DHT22;10873;51.132;16.848;2024-03-23T11:44:17;30.30;51.50
21425;DHT22;10873;51.132;16.848;2024-03-23T11:46:44;30.40;51.50
21425;DHT22;10873;51.132;16.848;2024-03-23T11:49:22;30.40;51.50
21425;DHT22;10873;51.132;16.848;2024-03-23T11:51:51;30.30;51.20
21425;DHT22;10873;51.132;16.848;2024-03-23T11:54:20;30.40;51.20
21425;DHT22;10873;51.132;16.848;2024-03-23T11:56:56;30.50;51.00
21425;DHT22;10873;51.132;16.848;2024-03-23T11:59:33;30.60;50.80
21425;DHT22;10873;51.132;16.848;2024-03-23T12:02:06;30.70;50.00
21425;DHT22;10873;51.132;16.848;2024-03-23T12:04:33;30.50;50.50
21425;DHT22;10873;51.132;16.848;2024-03-23T12:07:12;30.20;50.70
21425;DHT22;10873;51.132;16.848;2024-03-23T12:09:38;29.90;50.50
21425;DHT22;10873;51.132;16.848;2024-03-23T12:12:13;29.60;50.50
21425;DHT22;10873;51.132;16.848;2024-03-23T12:14:41;29.30;50.50
21425;DHT22;10873;51.132;16.848;2024-03-23T12:17:12;29.00;50.60
21425;DHT22;10873;51.132;16.848;2024-03-23T12:19:39;28.80;50.30
21425;DHT22;10873;51.132;16.848;2024-03-23T12:22:12;28.60;49.90
21425;DHT22;10873;51.132;16.848;2024-03-23T12:24:38;28.40;49.50
21425;DHT22;10873;51.132;16.848;2024-03-23T12:27:11;28.30;49.00
21425;DHT22;10873;51.132;16.848;2024-03-23T12:29:37;28.10;48.90
21425;DHT22;10873;51.132;16.848;2024-03-23T12:32:06;28.00;48.80
21425;DHT22;10873;51.132;16.848;2024-03-23T12:34:32;27.90;48.80
21425;DHT22;10873;51.132;16.848;2024-03-23T12:36:59;27.70;48.30
21425;DHT22;10873;51.132;16.848;2024-03-23T12:39:25;27.60;48.00
21425;DHT22;10873;51.132;16.848;2024-03-23T12:41:51;27.50;48.10
21425;DHT22;10873;51.132;16.848;2024-03-23T12:44:18;27.40;47.90
21425;DHT22;10873;51.132;16.848;2024-03-23T12:46:44;27.30;48.30
21425;DHT22;10873;51.132;16.848;2024-03-23T12:49:12;27.30;48.20
21425;DHT22;10873;51.132;16.848;2024-03-23T12:51:38;27.20;48.00
21425;DHT22;10873;51.132;16.848;2024-03-23T12:54:05;27.10;47.70
21425;DHT22;10873;51.132;16.848;2024-03-23T12:56:31;27.00;47.50
21425;DHT22;10873;51.132;16.848;2024-03-23T12:58:57;27.00;48.70
21425;DHT22;10873;51.132;16.848;2024-03-23T13:01:24;26.80;49.80
21425;DHT22;10873;51.132;16.848;2024-03-23T13:03:50;26.70;50.20
21425;DHT22;10873;51.132;16.848;2024-03-23T13:06:17;26.60;50.10
21425;DHT22;10873;51.132;16.848;2024-03-23T13:08:46;26.50;50.30
21425;DHT22;10873;51.132;16.848;2024-03-23T13:11:14;26.60;54.20
21425;DHT22;10873;51.132;16.848;2024-03-23T13:13:41;27.00;54.50
21425;DHT22;10873;51.132;16.848;2024-03-23T13:16:11;27.40;55.60
21425;DHT22;10873;51.132;16.848;2024-03-23T13:18:37;27.90;55.30
21425;DHT22;10873;51.132;16.848;2024-03-23T13:21:04;28.20;55.20
21425;DHT22;10873;51.132;16.848;2024-03-23T13:23:30;28.50;54.70
21425;DHT22;10873;51.132;16.848;2024-03-23T13:25:58;28.70;54.90
21425;DHT22;10873;51.132;16.848;2024-03-23T13:28:24;28.70;54.20
21425;DHT22;10873;51.132;16.848;2024-03-23T13:30:52;28.80;54.70
21425;DHT22;10873;51.132;16.848;2024-03-23T13:33:18;28.90;54.40
21425;DHT22;10873;51.132;16.848;2024-03-23T13:35:53;29.00;54.70
21425;DHT22;10873;51.132;16.848;2024-03-23T13:38:19;29.10;54.70
21425;DHT22;10873;51.132;16.848;2024-03-23T13:40:53;29.10;50.90
21425;DHT22;10873;51.132;16.848;2024-03-23T13:43:19;28.80;50.30
21425;DHT22;10873;51.132;16.848;2024-03-23T13:45:46;28.60;53.50
21425;DHT22;10873;51.132;16.848;2024-03-23T13:48:13;28.50;52.70
21425;DHT22;10873;51.132;16.848;2024-03-23T13:50:40;28.50;51.90
21425;DHT22;10873;51.132;16.848;2024-03-23T13:53:10;28.60;52.00
21425;DHT22;10873;51.132;16.848;2024-03-23T13:55:46;28.60;51.50
21425;DHT22;10873;51.132;16.848;2024-03-23T13:58:22;28.60;51.20
21425;DHT22;10873;51.132;16.848;2024-03-23T14:00:55;28.70;50.70
21425;DHT22;10873;51.132;16.848;2024-03-23T14:03:22;28.70;49.70
21425;DHT22;10873;51.132;16.848;2024-03-23T14:05:51;28.70;49.20
21425;DHT22;10873;51.132;16.848;2024-03-23T14:08:20;28.70;48.60
21425;DHT22;10873;51.132;16.848;2024-03-23T14:10:47;28.80;48.30
21425;DHT22;10873;51.132;16.848;2024-03-23T14:13:14;28.80;48.50
21425;DHT22;10873;51.132;16.848;2024-03-23T14:15:41;28.80;47.90
21425;DHT22;10873;51.132;16.848;2024-03-23T14:18:08;28.80;47.30
21425;DHT22;10873;51.132;16.848;2024-03-23T14:20:34;28.70;46.20
21425;DHT22;10873;51.132;16.848;2024-03-23T14:23:00;28.60;46.20
21425;DHT22;10873;51.132;16.848;2024-03-23T14:25:27;28.60;46.00
21425;DHT22;10873;51.132;16.848;2024-03-23T14:27:55;28.60;45.80
21425;DHT22;10873;51.132;16.848;2024-03-23T14:30:30;28.50;45.70
21425;DHT22;10873;51.132;16.848;2024-03-23T14:32:57;28.50;45.50
21425;DHT22;10873;51.132;16.848;2024-03-23T14:35:24;28.50;45.70
21425;DHT22;10873;51.132;16.848;2024-03-23T14:37:54;28.40;45.20
21425;DHT22;10873;51.132;16.848;2024-03-23T14:40:20;28.40;44.50
21425;DHT22;10873;51.132;16.848;2024-03-23T14:42:46;28.30;44.50
21425;DHT22;10873;51.132;16.848;2024-03-23T14:45:16;28.30;44.40
21425;DHT22;10873;51.132;16.848;2024-03-23T14:47:43;28.30;44.30
21425;DHT22;10873;51.132;16.848;2024-03-23T14:50:11;28.20;44.50
21425;DHT22;10873;51.132;16.848;2024-03-23T14:52:43;28.20;44.50
21425;DHT22;10873;51.132;16.848;2024-03-23T14:55:12;28.00;43.70
21425;DHT22;10873;51.132;16.848;2024-03-23T14:57:39;27.70;44.40
21425;DHT22;10873;51.132;16.848;2024-03-23T15:00:07;27.50;45.30
21425;DHT22;10873;51.132;16.848;2024-03-23T15:02:34;27.20;46.10
21425;DHT22;10873;51.132;16.848;2024-03-23T15:05:01;27.10;46.90
21425;DHT22;10873;51.132;16.848;2024-03-23T15:07:35;27.00;46.60
21425;DHT22;10873;51.132;16.848;2024-03-23T15:10:07;26.80;46.60
21425;DHT22;10873;51.132;16.848;2024-03-23T15:12:34;26.70;46.30
21425;DHT22;10873;51.132;16.848;2024-03-23T15:15:01;26.60;46.00
21425;DHT22;10873;51.132;16.848;2024-03-23T15:17:28;26.50;45.80
21425;DHT22;10873;51.132;16.848;2024-03-23T15:20:08;26.40;45.70
21425;DHT22;10873;51.132;16.848;2024-03-23T15:22:38;26.30;45.50
21425;DHT22;10873;51.132;16.848;2024-03-23T15:25:05;26.30;45.40
21425;DHT22;10873;51.132;16.848;2024-03-23T15:27:34;26.20;45.20
21425;DHT22;10873;51.132;16.848;2024-03-23T15:30:00;26.10;45.10
21425;DHT22;10873;51.132;16.848;2024-03-23T15:32:26;26.00;45.00
21425;DHT22;10873;51.132;16.848;2024-03-23T15:34:52;26.00;45.00
21425;DHT22;10873;51.132;16.848;2024-03-23T15:37:22;25.90;44.90
21425;DHT22;10873;51.132;16.848;2024-03-23T15:39:51;25.90;44.80
21425;DHT22;10873;51.132;16.848;2024-03-23T15:42:17;25.80;44.70
21425;DHT22;10873;51.132;16.848;2024-03-23T15:44:44;25.80;44.70
21425;DHT22;10873;51.132;16.848;2024-03-23T15:47:11;25.70;44.70
21425;DHT22;10873;51.132;16.848;2024-03-23T15:49:38;25.60;44.70
21425;DHT22;10873;51.132;16.848;2024-03-23T15:52:05;25.60;44.70
21425;DHT22;10873;51.132;16.848;2024-03-23T15:54:32;25.60;44.70
21425;DHT22;10873;51.132;16.848;2024-03-23T15:56:58;25.50;44.60
21425;DHT22;10873;51.132;16.848;2024-03-23T15:59:25;25.50;44.60
21425;DHT22;10873;51.132;16.848;2024-03-23T16:01:54;25.50;44.50
21425;DHT22;10873;51.132;16.848;2024-03-23T16:04:21;25.40;44.40
21425;DHT22;10873;51.132;16.848;2024-03-23T16:06:47;25.40;44.40
21425;DHT22;10873;51.132;16.848;2024-03-23T16:09:14;25.40;44.40
21425;DHT22;10873;51.132;16.848;2024-03-23T16:11:41;25.40;44.30
21425;DHT22;10873;51.132;16.848;2024-03-23T16:14:10;25.30;44.40
21425;DHT22;10873;51.132;16.848;2024-03-23T16:16:36;25.30;44.40